Welcome to Northern Hawkes Bay. New Zealand.
PWS Header
      nz Flag



Hit Counter


W3C Valid W3C Valid logo


    Wairoa

Select any of the Stations below to visit their websites.










Historic Data from Weather Underground
Select the location of interest below. Wairoa is the default. Please have patience, this Data is slow to load in.
Northern Hawkes Bay Historical Data
Daily Summary for September 29, 2017 Units:  Metric    English   Both
« Previous Day
Next Day »
Daily Weekly Monthly Yearly Custom
  High: Low: Average:
Temperature: 20.8 °C 5.9 °C 13.8 °C
Dew Point: 11.3 °C 5.7 °C 9.2 °C
Humidity: 99% 47% 76%
Wind Speed: 13.4km/h 0.0km/h 5.1km/h
Wind Gust: 23.3km/h - -
Wind- - West
Pressure: 1008.7 hPa 1006.0 hPa -
Precipitation: 0.3 mm    
Historical Graphs
 
 
Tabular Data for September 29, 2017
Time Temperature Dew Point Pressure Wind Wind Speed Wind Gust Humidity Rainfall Rate (Hourly) solar
00:03 9.6 °C 9.4 °C 1008.0 hPa NNW 7.2 km/h 11.1 km/h 99% 0.0 mm 0 W/m2
00:08 9.5 °C 9.3 °C 1008.0 hPa NW 7.2 km/h 12.2 km/h 99% 0.0 mm 0 W/m2
00:13 9.5 °C 9.3 °C 1008.0 hPa NW 6.1 km/h 12.2 km/h 99% 0.0 mm 0 W/m2
00:18 9.4 °C 9.3 °C 1008.0 hPa North 5.0 km/h 12.2 km/h 99% 0.0 mm 0 W/m2
00:23 9.3 °C 9.2 °C 1008.0 hPa North 2.6 km/h 11.1 km/h 99% 0.0 mm 0 W/m2
00:28 9.2 °C 9.1 °C 1008.4 hPa NNW 3.5 km/h 11.1 km/h 99% 0.0 mm 0 W/m2
00:33 9.2 °C 9.1 °C 1008.0 hPa NNW 3.5 km/h 8.7 km/h 99% 0.0 mm 0 W/m2
00:39 9.0 °C 8.8 °C 1008.0 hPa NNW 7.2 km/h 13.4 km/h 99% 0.0 mm 0 W/m2
00:45 8.8 °C 8.7 °C 1008.0 hPa NNW 6.1 km/h 13.4 km/h 99% 0.0 mm 0 W/m2
00:50 8.6 °C 8.4 °C 1008.0 hPa NNW 5.0 km/h 12.2 km/h 99% 0.0 mm 0 W/m2
00:55 8.5 °C 8.3 °C 1008.0 hPa NNW 2.6 km/h 9.7 km/h 99% 0.0 mm 0 W/m2
01:00 8.5 °C 8.3 °C 1008.0 hPa North 3.5 km/h 7.2 km/h 99% 0.0 mm 0 W/m2
01:05 8.5 °C 8.3 °C 1008.0 hPa North 5.0 km/h 8.7 km/h 99% 0.0 mm 0 W/m2
01:10 8.5 °C 8.3 °C 1008.4 hPa North 7.2 km/h 9.7 km/h 99% 0.0 mm 0 W/m2
01:15 8.5 °C 8.3 °C 1008.0 hPa North 6.1 km/h 11.1 km/h 99% 0.0 mm 0 W/m2
01:20 8.6 °C 8.4 °C 1008.0 hPa North 6.1 km/h 11.1 km/h 99% 0.0 mm 0 W/m2
01:25 8.6 °C 8.4 °C 1008.0 hPa North 8.7 km/h 12.2 km/h 99% 0.0 mm 0 W/m2
01:30 8.6 °C 8.4 °C 1008.0 hPa North 8.7 km/h 13.4 km/h 99% 0.0 mm 0 W/m2
01:35 8.7 °C 8.6 °C 1008.0 hPa NNW 6.1 km/h 13.4 km/h 99% 0.0 mm 0 W/m2
04:49 6.5 °C 6.2 °C 1006.7 hPa NW 2.6 km/h 3.5 km/h 98% 0.0 mm 0 W/m2
04:55 6.4 °C 6.1 °C 1006.7 hPa NW 2.6 km/h 3.5 km/h 98% 0.0 mm 0 W/m2
05:00 6.4 °C 6.1 °C 1006.7 hPa NNW 2.6 km/h 5.0 km/h 98% 0.0 mm 0 W/m2
05:05 6.4 °C 6.1 °C 1007.0 hPa NNW 2.6 km/h 5.0 km/h 98% 0.0 mm 0 W/m2
05:10 6.4 °C 6.1 °C 1007.0 hPa NNW 5.0 km/h 6.1 km/h 98% 0.0 mm 0 W/m2
05:15 6.5 °C 6.2 °C 1007.0 hPa NNW 2.6 km/h 6.1 km/h 98% 0.0 mm 0 W/m2
05:20 6.5 °C 6.2 °C 1007.0 hPa NNW 5.0 km/h 7.2 km/h 98% 0.0 mm 0 W/m2
05:25 6.5 °C 6.2 °C 1007.3 hPa North 3.5 km/h 7.2 km/h 98% 0.0 mm 0 W/m2
05:30 6.4 °C 6.1 °C 1007.0 hPa North 5.0 km/h 7.2 km/h 98% 0.0 mm 0 W/m2
05:35 6.4 °C 6.1 °C 1007.3 hPa NNW 5.0 km/h 7.2 km/h 98% 0.0 mm 0 W/m2
05:40 6.4 °C 6.1 °C 1007.3 hPa NNW 5.0 km/h 8.7 km/h 98% 0.0 mm 0 W/m2
05:45 6.4 °C 6.1 °C 1007.3 hPa NNW 2.6 km/h 8.7 km/h 98% 0.0 mm 0 W/m2
05:50 6.4 °C 6.1 °C 1007.0 hPa NW 3.5 km/h 7.2 km/h 98% 0.0 mm 0 W/m2
05:55 6.4 °C 6.1 °C 1007.0 hPa NW 3.5 km/h 7.2 km/h 98% 0.0 mm 0 W/m2
06:00 6.2 °C 5.9 °C 1007.0 hPa NW 2.6 km/h 7.2 km/h 98% 0.0 mm 0 W/m2
06:05 6.2 °C 5.9 °C 1007.0 hPa NW 3.5 km/h 6.1 km/h 98% 0.0 mm 0 W/m2
06:10 6.1 °C 5.8 °C 1007.0 hPa NW 2.6 km/h 6.1 km/h 98% 0.0 mm 0 W/m2
06:15 6.0 °C 5.7 °C 1007.0 hPa Calm   6.1 km/h 98% 0.0 mm 0 W/m2
06:20 6.0 °C 5.7 °C 1007.3 hPa NNW 3.5 km/h 5.0 km/h 98% 0.0 mm 0 W/m2
06:25 6.0 °C 5.7 °C 1007.0 hPa NW 3.5 km/h 7.2 km/h 98% 0.0 mm 0 W/m2
06:30 6.0 °C 5.7 °C 1007.0 hPa NW 2.6 km/h 7.2 km/h 98% 0.0 mm 0 W/m2
06:35 5.9 °C 5.8 °C 1007.0 hPa Calm   5.0 km/h 99% 0.0 mm 0 W/m2
06:40 5.9 °C 5.8 °C 1007.0 hPa Calm   5.0 km/h 99% 0.0 mm 0 W/m2
06:45 6.0 °C 5.7 °C 1007.0 hPa NNW 1.1 km/h 2.6 km/h 98% 0.0 mm 0 W/m2
06:50 6.0 °C 5.7 °C 1007.3 hPa NNW 3.5 km/h 5.0 km/h 98% 0.0 mm 0 W/m2
06:55 6.2 °C 5.9 °C 1007.0 hPa WNW 1.1 km/h 5.0 km/h 98% 0.0 mm 3 W/m2
07:00 6.2 °C 5.9 °C 1007.3 hPa WNW 3.5 km/h 6.1 km/h 98% 0.0 mm 5 W/m2
07:05 6.2 °C 5.9 °C 1007.3 hPa WNW 3.5 km/h 7.2 km/h 98% 0.0 mm 9 W/m2
07:10 6.2 °C 5.9 °C 1007.7 hPa NW 3.5 km/h 7.2 km/h 98% 0.0 mm 12 W/m2
07:15 6.2 °C 5.9 °C 1007.3 hPa NW 3.5 km/h 7.2 km/h 98% 0.0 mm 46 W/m2
07:20 6.5 °C 6.2 °C 1007.3 hPa NW 2.6 km/h 7.2 km/h 98% 0.0 mm 64 W/m2
07:25 7.0 °C 6.6 °C 1007.7 hPa WNW 1.1 km/h 6.1 km/h 97% 0.0 mm 80 W/m2
07:30 7.4 °C 6.9 °C 1007.3 hPa Calm   5.0 km/h 97% 0.0 mm 94 W/m2
07:35 7.9 °C 7.4 °C 1007.3 hPa NW 1.1 km/h 3.5 km/h 97% 0.0 mm 109 W/m2
07:41 8.1 °C 7.9 °C 1007.3 hPa NW 2.6 km/h 6.1 km/h 99% 0.0 mm 131 W/m2
07:46 8.3 °C 8.2 °C 1007.3 hPa NW 2.6 km/h 6.1 km/h 99% 0.0 mm 145 W/m2
07:51 8.7 °C 8.6 °C 1007.3 hPa NW 2.6 km/h 6.1 km/h 99% 0.0 mm 160 W/m2
07:56 9.1 °C 8.9 °C 1007.7 hPa NW 1.1 km/h 5.0 km/h 99% 0.0 mm 178 W/m2
08:01 9.6 °C 9.4 °C 1008.0 hPa NW 2.6 km/h 5.0 km/h 99% 0.0 mm 200 W/m2
08:06 10.2 °C 10.1 °C 1008.0 hPa WNW 3.5 km/h 5.0 km/h 99% 0.0 mm 214 W/m2
08:11 10.2 °C 10.1 °C 1008.0 hPa WNW 1.1 km/h 7.2 km/h 99% 0.0 mm 233 W/m2
08:16 10.6 °C 10.4 °C 1008.0 hPa NW 2.6 km/h 7.2 km/h 99% 0.0 mm 204 W/m2
08:21 10.7 °C 10.6 °C 1008.0 hPa NW 2.6 km/h 7.2 km/h 99% 0.0 mm 124 W/m2
08:26 10.7 °C 10.1 °C 1008.4 hPa NW 1.1 km/h 7.2 km/h 96% 0.0 mm 96 W/m2
08:31 10.7 °C 9.9 °C 1008.0 hPa NW 1.1 km/h 5.0 km/h 95% 0.0 mm 145 W/m2
08:36 10.8 °C 10.1 °C 1008.0 hPa NW 3.5 km/h 5.0 km/h 95% 0.0 mm 130 W/m2
08:41 11.0 °C 9.9 °C 1008.0 hPa NW 5.0 km/h 7.2 km/h 93% 0.0 mm 236 W/m2
08:44 11.2 °C 10.1 °C 1008.0 hPa NW 3.5 km/h 8.7 km/h 93% 0.0 mm 303 W/m2
08:49 11.7 °C 10.3 °C 1008.0 hPa NW 3.5 km/h 11.1 km/h 91% 0.0 mm 156 W/m2
08:54 11.9 °C 10.3 °C 1008.0 hPa NW 5.0 km/h 11.1 km/h 90% 0.0 mm 195 W/m2
08:59 12.0 °C 10.1 °C 1008.0 hPa NW 3.5 km/h 9.7 km/h 88% 0.0 mm 213 W/m2
09:04 12.3 °C 10.4 °C 1008.0 hPa NW 6.1 km/h 9.7 km/h 88% 0.0 mm 240 W/m2
09:09 12.5 °C 10.4 °C 1008.4 hPa NW 5.0 km/h 9.7 km/h 87% 0.0 mm 317 W/m2
09:14 13.0 °C 10.9 °C 1008.4 hPa NW 6.1 km/h 11.1 km/h 87% 0.0 mm 307 W/m2
09:19 13.3 °C 11.0 °C 1008.4 hPa NNW 5.0 km/h 11.1 km/h 86% 0.0 mm 272 W/m2
09:24 13.6 °C 11.1 °C 1008.7 hPa NNW 3.5 km/h 9.7 km/h 85% 0.0 mm 328 W/m2
09:29 13.7 °C 10.7 °C 1008.4 hPa NW 3.5 km/h 8.7 km/h 82% 0.0 mm 177 W/m2
09:34 13.6 °C 10.6 °C 1008.4 hPa NW 3.5 km/h 8.7 km/h 82% 0.0 mm 245 W/m2
09:39 14.1 °C 11.1 °C 1008.4 hPa NNW 3.5 km/h 7.2 km/h 82% 0.0 mm 306 W/m2
09:45 14.7 °C 11.3 °C 1008.4 hPa Calm   6.1 km/h 80% 0.0 mm 222 W/m2
09:50 15.1 °C 11.1 °C 1008.4 hPa NNW 2.6 km/h 6.1 km/h 77% 0.0 mm 215 W/m2
09:55 15.2 °C 11.2 °C 1008.4 hPa North 3.5 km/h 7.2 km/h 77% 0.0 mm 183 W/m2
10:00 15.1 °C 10.7 °C 1008.4 hPa NNW 3.5 km/h 8.7 km/h 75% 0.0 mm 199 W/m2
10:05 15.2 °C 10.8 °C 1008.4 hPa NNW 5.0 km/h 11.1 km/h 75% 0.0 mm 194 W/m2
10:10 15.2 °C 10.6 °C 1008.4 hPa NNW 1.1 km/h 11.1 km/h 74% 0.0 mm 193 W/m2
10:15 15.2 °C 10.4 °C 1008.4 hPa NNW 3.5 km/h 11.1 km/h 73% 0.0 mm 191 W/m2
10:20 15.3 °C 10.5 °C 1008.4 hPa NNW 5.0 km/h 9.7 km/h 73% 0.0 mm 182 W/m2
10:25 15.5 °C 10.7 °C 1008.4 hPa NNW 5.0 km/h 9.7 km/h 73% 0.0 mm 193 W/m2
10:30 15.6 °C 10.4 °C 1008.4 hPa North 7.2 km/h 12.2 km/h 71% 0.0 mm 218 W/m2
10:35 15.7 °C 10.3 °C 1008.4 hPa North 9.7 km/h 14.8 km/h 70% 0.0 mm 239 W/m2
10:41 16.0 °C 10.1 °C 1008.4 hPa North 5.0 km/h 14.8 km/h 68% 0.0 mm 269 W/m2
10:46 16.5 °C 10.3 °C 1008.4 hPa North 7.2 km/h 13.4 km/h 67% 0.0 mm 252 W/m2
10:51 16.5 °C 9.9 °C 1008.4 hPa NNW 5.0 km/h 11.1 km/h 65% 0.0 mm 227 W/m2
10:56 16.5 °C 9.9 °C 1008.4 hPa NNW 3.5 km/h 11.1 km/h 65% 0.0 mm 208 W/m2
11:01 16.3 °C 9.9 °C 1008.0 hPa NNW 2.6 km/h 8.7 km/h 66% 0.0 mm 184 W/m2
11:06 16.2 °C 10.1 °C 1008.0 hPa North 5.0 km/h 11.1 km/h 67% 0.0 mm 178 W/m2
11:11 16.1 °C 9.8 °C 1008.0 hPa North 3.5 km/h 11.1 km/h 66% 0.0 mm 204 W/m2
11:16 16.3 °C 9.9 °C 1008.0 hPa North 2.6 km/h 8.7 km/h 66% 0.0 mm 269 W/m2
11:21 16.8 °C 9.9 °C 1008.0 hPa NNE 5.0 km/h 9.7 km/h 64% 0.0 mm 305 W/m2
11:26 16.8 °C 9.7 °C 1008.0 hPa NNE 5.0 km/h 9.7 km/h 63% 0.0 mm 230 W/m2
11:31 16.6 °C 9.6 °C 1007.7 hPa North 5.0 km/h 9.7 km/h 63% 0.0 mm 201 W/m2
11:36 16.6 °C 9.8 °C 1007.7 hPa North 6.1 km/h 14.8 km/h 64% 0.0 mm 208 W/m2
11:41 16.4 °C 9.6 °C 1008.0 hPa NNW 9.7 km/h 14.8 km/h 64% 0.0 mm 179 W/m2
11:46 16.2 °C 9.6 °C 1007.7 hPa NNW 6.1 km/h 12.2 km/h 65% 0.0 mm 162 W/m2
11:51 16.2 °C 9.6 °C 1007.7 hPa North 5.0 km/h 17.2 km/h 65% 0.0 mm 175 W/m2
11:56 16.2 °C 8.9 °C 1007.7 hPa NNW 6.1 km/h 18.3 km/h 62% 0.0 mm 187 W/m2
12:01 16.3 °C 9.0 °C 1007.3 hPa NNW 7.2 km/h 18.3 km/h 62% 0.0 mm 247 W/m2
12:06 16.5 °C 9.2 °C 1007.3 hPa NNW 11.1 km/h 17.2 km/h 62% 0.0 mm 269 W/m2
12:11 16.6 °C 9.3 °C 1007.3 hPa NNW 9.7 km/h 19.5 km/h 62% 0.0 mm 207 W/m2
12:16 16.5 °C 8.7 °C 1007.3 hPa North 9.7 km/h 20.9 km/h 60% 0.0 mm 292 W/m2
12:21 16.8 °C 9.2 °C 1007.0 hPa NNW 6.1 km/h 20.9 km/h 61% 0.0 mm 331 W/m2
12:26 16.9 °C 7.8 °C 1007.0 hPa NW 5.0 km/h 15.8 km/h 55% 0.0 mm 357 W/m2
12:31 17.3 °C 8.4 °C 1007.0 hPa NNW 7.2 km/h 15.8 km/h 56% 0.0 mm 298 W/m2
12:36 17.5 °C 8.6 °C 1007.0 hPa NNW 12.2 km/h 15.8 km/h 56% 0.0 mm 241 W/m2
12:41 17.2 °C 7.8 °C 1007.3 hPa NNW 8.7 km/h 15.8 km/h 54% 0.0 mm 240 W/m2
12:46 17.1 °C 7.4 °C 1007.3 hPa NNW 11.1 km/h 15.8 km/h 53% 0.0 mm 356 W/m2
12:51 17.3 °C 7.9 °C 1007.3 hPa NNW 6.1 km/h 15.8 km/h 54% 0.0 mm 307 W/m2
12:56 17.6 °C 8.2 °C 1007.3 hPa NNW 7.2 km/h 14.8 km/h 54% 0.0 mm 338 W/m2
13:01 17.7 °C 8.3 °C 1007.3 hPa NNW 7.2 km/h 18.3 km/h 54% 0.0 mm 454 W/m2
13:04 17.8 °C 8.1 °C 1007.3 hPa NNW 12.2 km/h 18.3 km/h 53% 0.0 mm 448 W/m2
13:09 18.0 °C 8.3 °C 1007.0 hPa NNW 11.1 km/h 23.3 km/h 53% 0.0 mm 558 W/m2
13:15 18.2 °C 7.9 °C 1007.3 hPa NNW 9.7 km/h 23.3 km/h 51% 0.0 mm 306 W/m2
13:20 17.8 °C 7.8 °C 1007.3 hPa NNW 11.1 km/h 20.9 km/h 52% 0.0 mm 346 W/m2
13:25 17.5 °C 7.8 °C 1007.3 hPa NNW 6.1 km/h 20.9 km/h 53% 0.0 mm 273 W/m2
13:42 18.1 °C 8.9 °C 1007.3 hPa North 3.5 km/h 15.8 km/h 55% 0.0 mm 365 W/m2
13:47 18.2 °C 8.7 °C 1007.3 hPa NNW 8.7 km/h 17.2 km/h 54% 0.0 mm 649 W/m2
13:53 18.5 °C 8.7 °C 1007.3 hPa NW 9.7 km/h 21.9 km/h 53% 0.0 mm 517 W/m2
13:58 18.9 °C 8.8 °C 1007.3 hPa NW 11.1 km/h 21.9 km/h 52% 0.0 mm 680 W/m2
14:03 19.5 °C 9.1 °C 1007.3 hPa NNW 2.6 km/h 17.2 km/h 51% 0.0 mm 431 W/m2
14:08 19.3 °C 8.6 °C 1007.3 hPa NNW 3.5 km/h 15.8 km/h 50% 0.0 mm 650 W/m2
14:13 20.0 °C 8.9 °C 1007.3 hPa NW 6.1 km/h 15.8 km/h 49% 0.0 mm 472 W/m2
14:18 19.8 °C 9.4 °C 1007.0 hPa NW 3.5 km/h 13.4 km/h 51% 0.0 mm 562 W/m2
14:23 20.2 °C 9.8 °C 1007.0 hPa NW 3.5 km/h 13.4 km/h 51% 0.0 mm 350 W/m2
14:28 20.1 °C 9.1 °C 1006.7 hPa NNW 6.1 km/h 18.3 km/h 49% 0.0 mm 606 W/m2
14:33 20.2 °C 8.8 °C 1006.7 hPa NNW 5.0 km/h 18.3 km/h 48% 0.0 mm 649 W/m2
14:38 20.2 °C 8.8 °C 1006.7 hPa NW 7.2 km/h 15.8 km/h 48% 0.0 mm 676 W/m2
14:43 20.8 °C 9.4 °C 1006.7 hPa NNW 2.6 km/h 12.2 km/h 48% 0.0 mm 472 W/m2
14:48 20.1 °C 8.4 °C 1006.3 hPa NW 8.7 km/h 14.8 km/h 47% 0.0 mm 488 W/m2
14:53 19.9 °C 9.8 °C 1006.3 hPa WNW 11.1 km/h 14.8 km/h 52% 0.0 mm 532 W/m2
14:58 19.9 °C 8.9 °C 1006.3 hPa NNW 6.1 km/h 17.2 km/h 49% 0.0 mm 461 W/m2
15:03 19.9 °C 9.8 °C 1006.3 hPa NNW 9.7 km/h 17.2 km/h 52% 0.0 mm 317 W/m2
15:08 19.8 °C 9.1 °C 1006.3 hPa NNW 6.1 km/h 15.8 km/h 50% 0.0 mm 237 W/m2
15:13 19.8 °C 8.5 °C 1006.3 hPa NNW 1.1 km/h 14.8 km/h 48% 0.0 mm 232 W/m2
15:18 20.0 °C 8.3 °C 1006.3 hPa NNW 9.7 km/h 15.8 km/h 47% 0.0 mm 221 W/m2
15:23 20.1 °C 8.8 °C 1006.3 hPa NNW 5.0 km/h 15.8 km/h 48% 0.0 mm 200 W/m2
15:28 20.5 °C 9.4 °C 1006.0 hPa North 6.1 km/h 12.2 km/h 49% 0.0 mm 235 W/m2
15:33 20.3 °C 8.6 °C 1006.0 hPa North 1.1 km/h 18.3 km/h 47% 0.0 mm 219 W/m2
15:38 20.5 °C 9.7 °C 1006.3 hPa NNW 5.0 km/h 18.3 km/h 50% 0.0 mm 321 W/m2
15:43 20.3 °C 9.2 °C 1006.3 hPa NNW 7.2 km/h 12.2 km/h 49% 0.0 mm 452 W/m2
15:48 20.5 °C 9.1 °C 1006.3 hPa NNW 9.7 km/h 15.8 km/h 48% 0.0 mm 393 W/m2
15:53 20.6 °C 8.9 °C 1006.0 hPa NNW 8.7 km/h 15.8 km/h 47% 0.0 mm 470 W/m2
15:58 20.3 °C 8.9 °C 1006.3 hPa NNW 11.1 km/h 17.2 km/h 48% 0.0 mm 455 W/m2
16:03 20.3 °C 8.9 °C 1006.3 hPa North 12.2 km/h 19.5 km/h 48% 0.0 mm 158 W/m2
16:08 20.3 °C 9.6 °C 1006.3 hPa NNW 7.2 km/h 20.9 km/h 50% 0.0 mm 154 W/m2
16:13 20.2 °C 10.1 °C 1006.3 hPa NNW 9.7 km/h 20.9 km/h 52% 0.0 mm 254 W/m2
16:20 20.0 °C 10.2 °C 1006.3 hPa NNW 13.4 km/h 20.9 km/h 53% 0.0 mm 137 W/m2
16:26 19.5 °C 10.5 °C 1006.3 hPa North 7.2 km/h 20.9 km/h 56% 0.0 mm 394 W/m2
16:31 19.9 °C 10.6 °C 1006.7 hPa NNE 7.2 km/h 18.3 km/h 55% 0.0 mm 153 W/m2
16:36 19.0 °C 9.8 °C 1006.7 hPa NNE 12.2 km/h 18.3 km/h 55% 0.0 mm 201 W/m2
16:41 18.7 °C 10.3 °C 1006.3 hPa North 5.0 km/h 15.8 km/h 58% 0.0 mm 138 W/m2
16:46 18.8 °C 10.6 °C 1006.3 hPa NNE 9.7 km/h 17.2 km/h 59% 0.0 mm 144 W/m2
16:51 18.4 °C 10.0 °C 1006.3 hPa North 6.1 km/h 19.5 km/h 58% 0.0 mm 106 W/m2
16:52 18.4 °C 10.0 °C 1006.3 hPa North 2.6 km/h 19.5 km/h 58% 0.0 mm 96 W/m2
16:57 18.1 °C 9.7 °C 1006.7 hPa NNW 9.7 km/h 19.5 km/h 58% 0.0 mm 91 W/m2
17:02 18.2 °C 10.1 °C 1006.3 hPa NW 12.2 km/h 18.3 km/h 59% 0.0 mm 142 W/m2
17:07 18.3 °C 9.9 °C 1006.3 hPa NNW 7.2 km/h 17.2 km/h 58% 0.0 mm 115 W/m2
17:09 18.4 °C 10.0 °C 1006.3 hPa NNW 5.0 km/h 17.2 km/h 58% 0.0 mm 99 W/m2
17:14 18.2 °C 9.8 °C 1006.3 hPa North 5.0 km/h 19.5 km/h 58% 0.0 mm 155 W/m2
17:16 18.3 °C 10.2 °C 1006.3 hPa North 11.1 km/h 19.5 km/h 59% 0.0 mm 195 W/m2
17:33 19.4 °C 10.4 °C 1006.3 hPa North 8.7 km/h 14.8 km/h 56% 0.0 mm 150 W/m2
17:38 19.5 °C 10.2 °C 1006.3 hPa North 8.7 km/h 15.8 km/h 55% 0.0 mm 141 W/m2
17:44 19.0 °C 10.1 °C 1006.3 hPa NNW 8.7 km/h 19.5 km/h 56% 0.0 mm 96 W/m2
17:49 18.1 °C 9.9 °C 1006.3 hPa North 3.5 km/h 19.5 km/h 59% 0.0 mm 62 W/m2
17:54 17.7 °C 10.1 °C 1006.3 hPa NNE 8.7 km/h 15.8 km/h 61% 0.0 mm 59 W/m2
17:59 17.4 °C 10.1 °C 1006.3 hPa NNE 6.1 km/h 15.8 km/h 62% 0.0 mm 62 W/m2
18:04 17.4 °C 10.1 °C 1006.0 hPa NNE 5.0 km/h 14.8 km/h 62% 0.0 mm 40 W/m2
18:09 17.0 °C 9.9 °C 1006.3 hPa North 5.0 km/h 14.8 km/h 63% 0.0 mm 33 W/m2
18:14 16.7 °C 10.3 °C 1006.3 hPa North 8.7 km/h 12.2 km/h 66% 0.0 mm 41 W/m2
18:19 16.7 °C 10.1 °C 1006.3 hPa North 3.5 km/h 12.2 km/h 65% 0.0 mm 39 W/m2
18:25 17.0 °C 10.2 °C 1006.3 hPa NNW 2.6 km/h 13.4 km/h 64% 0.0 mm 36 W/m2
18:30 17.2 °C 10.3 °C 1006.3 hPa NNW 5.0 km/h 13.4 km/h 64% 0.0 mm 41 W/m2
18:35 17.0 °C 10.2 °C 1006.3 hPa NNW 3.5 km/h 11.1 km/h 64% 0.0 mm 30 W/m2
18:40 16.7 °C 10.1 °C 1006.3 hPa NNW 2.6 km/h 9.7 km/h 65% 0.0 mm 28 W/m2
18:45 16.7 °C 10.3 °C 1006.3 hPa North 5.0 km/h 11.1 km/h 66% 0.0 mm 24 W/m2
18:50 16.5 °C 10.3 °C 1006.3 hPa NNW 3.5 km/h 11.1 km/h 67% 0.0 mm 19 W/m2
18:55 16.3 °C 10.4 °C 1006.3 hPa NNW 2.6 km/h 11.1 km/h 68% 0.0 mm 13 W/m2
19:00 16.1 °C 10.4 °C 1006.3 hPa NNW 6.1 km/h 11.1 km/h 69% 0.0 mm 9 W/m2
19:05 15.9 °C 10.9 °C 1006.3 hPa NNW 1.1 km/h 11.1 km/h 72% 0.0 mm 5 W/m2
19:10 15.7 °C 10.9 °C 1006.3 hPa North 2.6 km/h 8.7 km/h 73% 0.0 mm 1 W/m2
19:15 15.5 °C 10.9 °C 1006.3 hPa North 1.1 km/h 7.2 km/h 74% 0.0 mm 0 W/m2
19:35 14.8 °C 10.8 °C 1006.7 hPa North 1.1 km/h 7.2 km/h 77% 0.0 mm 0 W/m2
19:40 14.6 °C 10.6 °C 1006.7 hPa North 2.6 km/h 7.2 km/h 77% 0.0 mm 0 W/m2
19:45 14.5 °C 10.5 °C 1006.7 hPa North 2.6 km/h 6.1 km/h 77% 0.0 mm 0 W/m2
19:50 14.3 °C 10.5 °C 1006.7 hPa Calm   6.1 km/h 78% 0.0 mm 0 W/m2
19:55 14.1 °C 10.3 °C 1006.7 hPa Calm   3.5 km/h 78% 0.0 mm 0 W/m2
20:00 14.0 °C 10.4 °C 1006.7 hPa North 1.1 km/h 5.0 km/h 79% 0.0 mm 0 W/m2
20:05 13.9 °C 10.5 °C 1007.0 hPa North 2.6 km/h 5.0 km/h 80% 0.0 mm 0 W/m2
20:10 13.7 °C 10.3 °C 1006.7 hPa NNW 1.1 km/h 3.5 km/h 80% 0.0 mm 0 W/m2
20:15 13.7 °C 10.5 °C 1007.0 hPa NNW 1.1 km/h 5.0 km/h 81% 0.0 mm 0 W/m2
20:20 13.5 °C 10.3 °C 1006.7 hPa NW 2.6 km/h 5.0 km/h 81% 0.0 mm 0 W/m2
20:25 13.4 °C 10.4 °C 1007.0 hPa NNW 5.0 km/h 6.1 km/h 82% 0.0 mm 0 W/m2
20:30 13.3 °C 10.5 °C 1007.0 hPa NNW 5.0 km/h 7.2 km/h 83% 0.0 mm 0 W/m2
20:35 13.2 °C 10.6 °C 1007.0 hPa NNW 2.6 km/h 8.7 km/h 84% 0.0 mm 0 W/m2
20:40 13.1 °C 10.7 °C 1007.0 hPa NNW 5.0 km/h 8.7 km/h 85% 0.0 mm 0 W/m2
20:45 13.0 °C 10.6 °C 1007.0 hPa North 3.5 km/h 8.7 km/h 85% 0.0 mm 0 W/m2
20:50 13.0 °C 10.6 °C 1007.0 hPa NNW 2.6 km/h 8.7 km/h 85% 0.0 mm 0 W/m2
20:55 13.1 °C 10.7 °C 1007.3 hPa NNW 3.5 km/h 8.7 km/h 85% 0.0 mm 0 W/m2
21:00 13.2 °C 10.6 °C 1007.0 hPa NNW 7.2 km/h 9.7 km/h 84% 0.0 mm 0 W/m2
21:05 13.2 °C 10.4 °C 1007.0 hPa North 3.5 km/h 9.7 km/h 83% 0.0 mm 0 W/m2
21:10 13.3 °C 10.5 °C 1007.0 hPa NNW 3.5 km/h 9.7 km/h 83% 0.0 mm 0 W/m2
21:15 13.4 °C 10.6 °C 1007.3 hPa NNW 2.6 km/h 11.1 km/h 83% 0.0 mm 0 W/m2
21:20 13.4 °C 10.4 °C 1007.0 hPa NNW 5.0 km/h 11.1 km/h 82% 0.0 mm 0 W/m2
21:25 13.4 °C 10.4 °C 1007.3 hPa NNW 5.0 km/h 11.1 km/h 82% 0.0 mm 0 W/m2
21:30 13.4 °C 10.4 °C 1007.0 hPa NNW 3.5 km/h 11.1 km/h 82% 0.0 mm 0 W/m2
21:35 13.3 °C 10.5 °C 1007.0 hPa North 6.1 km/h 11.1 km/h 83% 0.0 mm 0 W/m2
21:40 13.3 °C 10.7 °C 1007.0 hPa NNW 5.0 km/h 13.4 km/h 84% 0.0 mm 0 W/m2
21:45 13.3 °C 10.7 °C 1007.0 hPa NNW 6.1 km/h 13.4 km/h 84% 0.0 mm 0 W/m2
21:50 13.2 °C 10.7 °C 1007.0 hPa North 6.1 km/h 12.2 km/h 85% 0.0 mm 0 W/m2
21:52 13.2 °C 10.7 °C 1007.0 hPa North 7.2 km/h 12.2 km/h 85% 0.0 mm 0 W/m2
21:57 13.2 °C 10.7 °C 1007.0 hPa North 5.0 km/h 11.1 km/h 85% 0.0 mm 0 W/m2
22:02 13.2 °C 10.7 °C 1007.0 hPa North 7.2 km/h 11.1 km/h 85% 0.0 mm 0 W/m2
22:07 13.2 °C 10.7 °C 1007.0 hPa North 5.0 km/h 12.2 km/h 85% 0.0 mm 0 W/m2
22:12 13.2 °C 10.7 °C 1007.0 hPa North 6.1 km/h 12.2 km/h 85% 0.0 mm 0 W/m2
22:17 13.2 °C 10.7 °C 1006.7 hPa North 8.7 km/h 13.4 km/h 85% 0.0 mm 0 W/m2
22:22 13.3 °C 10.7 °C 1006.7 hPa North 8.7 km/h 13.4 km/h 84% 0.0 mm 0 W/m2
22:27 13.3 °C 10.5 °C 1006.7 hPa North 7.2 km/h 13.4 km/h 83% 0.0 mm 0 W/m2
22:32 13.4 °C 10.4 °C 1006.7 hPa North 3.5 km/h 12.2 km/h 82% 0.0 mm 0 W/m2
22:37 13.4 °C 10.4 °C 1006.7 hPa NNE 7.2 km/h 12.2 km/h 82% 0.0 mm 0 W/m2
22:42 13.4 °C 10.2 °C 1006.7 hPa NNE 6.1 km/h 13.4 km/h 81% 0.0 mm 0 W/m2
22:47 13.4 °C 10.2 °C 1006.7 hPa NNE 6.1 km/h 13.4 km/h 81% 0.0 mm 0 W/m2
22:52 13.4 °C 10.2 °C 1006.7 hPa North 9.7 km/h 13.4 km/h 81% 0.0 mm 0 W/m2
22:57 13.5 °C 10.1 °C 1006.7 hPa North 7.2 km/h 17.2 km/h 80% 0.0 mm 0 W/m2
23:02 13.4 °C 10.0 °C 1006.7 hPa North 7.2 km/h 17.2 km/h 80% 0.0 mm 0 W/m2
23:07 13.3 °C 9.9 °C 1006.7 hPa North 6.1 km/h 13.4 km/h 80% 0.0 mm 0 W/m2
23:12 13.2 °C 10.0 °C 1006.7 hPa NNE 6.1 km/h 13.4 km/h 81% 0.0 mm 0 W/m2
23:17 13.0 °C 9.8 °C 1006.7 hPa NNE 7.2 km/h 13.4 km/h 81% 0.0 mm 0 W/m2
23:22 12.9 °C 9.9 °C 1006.7 hPa North 2.6 km/h 13.4 km/h 82% 0.0 mm 0 W/m2
23:27 12.8 °C 9.8 °C 1006.7 hPa North 5.0 km/h 11.1 km/h 82% 0.0 mm 0 W/m2
23:32 12.7 °C 9.9 °C 1006.3 hPa NNW 3.5 km/h 11.1 km/h 83% 0.0 mm 0 W/m2
23:37 12.5 °C 9.7 °C 1006.3 hPa NNW 6.1 km/h 8.7 km/h 83% 0.0 mm 0 W/m2
23:42 12.3 °C 9.7 °C 1006.3 hPa North 3.5 km/h 8.7 km/h 84% 0.0 mm 0 W/m2
23:47 12.1 °C 9.7 °C 1006.3 hPa North 5.0 km/h 8.7 km/h 85% 0.0 mm 0 W/m2
23:52 11.9 °C 9.8 °C 1006.0 hPa North 5.0 km/h 8.7 km/h 87% 0.0 mm 0 W/m2
23:57 11.7 °C 9.8 °C 1006.3 hPa North 5.0 km/h 9.7 km/h 88% 0.0 mm 0 W/m2
Northern Hawkes Bay. New Zealand Historic Data
Compliments of Weather Underground - 2 mb